DLH14A KJFK-EDDF
Flight info
| Callsign | DLH14A |
|---|---|
| Flight time | N/A |
| Altitude | 39000 |
| Route | GREKI DCT JUDDS DCT MARTN DCT EBONY N567B TUDEP/M085F400 DCT 52N050W 54N040W 55N030W 55N020W DCT DOGAL DCT BEXET/N0492F410 DCT MORAG DCT NUCHU L607 KONAN DCT KOK UL607 FERDI DCT REMBA DCT SPI T180 NIVNU T847 IMCOM IMCOM1D |
| Aircraft | B789/H-SDE1E2E3FGHIJ2J3J4J5M1RWXY/LB1D1 |
Departure
| Time | 2026-05-08 11:28 |
|---|---|
| Airport | John F. Kennedy International Airport (KJFK) |
Arrival
| Time | N/A |
|---|---|
| Airport | Frankfurt Main Airport (EDDF) |
| Time | Latitude | Longitude | Altitude | Speed | Heading |
|---|---|---|---|---|---|
| 2026-05-08 10:56 | 40.64122 | -73.78152 | 26 ft | 0 kts | 241° |
| 2026-05-08 11:03 | 40.64122 | -73.78153 | 26 ft | 0 kts | 241° |
| 2026-05-08 11:04 | 40.64138 | -73.78115 | 31 ft | 6 kts | 240° |
| 2026-05-08 11:04 | 40.64153 | -73.78080 | 31 ft | 4 kts | 217° |
| 2026-05-08 11:05 | 40.64177 | -73.78070 | 31 ft | 3 kts | 126° |
| 2026-05-08 11:05 | 40.64179 | -73.78075 | 31 ft | 0 kts | 117° |
| 2026-05-08 11:07 | 40.64122 | -73.78152 | 26 ft | 0 kts | 241° |
| 2026-05-08 11:18 | 40.64122 | -73.78153 | 26 ft | 0 kts | 241° |
| 2026-05-08 11:18 | 40.64121 | -73.78156 | 26 ft | 0 kts | 241° |
| 2026-05-08 11:19 | 40.64124 | -73.78148 | 26 ft | 4 kts | 242° |
| 2026-05-08 11:19 | 40.64134 | -73.78124 | 31 ft | 5 kts | 242° |
| 2026-05-08 11:19 | 40.64163 | -73.78072 | 31 ft | 0 kts | 208° |
| 2026-05-08 11:19 | 40.64162 | -73.78072 | 31 ft | 0 kts | 208° |
| 2026-05-08 11:20 | 40.64151 | -73.78067 | 31 ft | 4 kts | 163° |
| 2026-05-08 11:20 | 40.64097 | -73.78022 | 31 ft | 15 kts | 148° |
| 2026-05-08 11:20 | 40.64003 | -73.77958 | 30 ft | 15 kts | 163° |
| 2026-05-08 11:21 | 40.63904 | -73.77937 | 29 ft | 14 kts | 173° |
| 2026-05-08 11:21 | 40.63862 | -73.77930 | 28 ft | 0 kts | 173° |
| 2026-05-08 11:21 | 40.63823 | -73.77926 | 28 ft | 7 kts | 177° |
| 2026-05-08 11:21 | 40.63778 | -73.77923 | 29 ft | 6 kts | 173° |
| 2026-05-08 11:22 | 40.63692 | -73.77905 | 30 ft | 15 kts | 168° |
| 2026-05-08 11:22 | 40.63584 | -73.77864 | 28 ft | 15 kts | 147° |
| 2026-05-08 11:22 | 40.63521 | -73.77828 | 29 ft | 9 kts | 191° |
| 2026-05-08 11:22 | 40.63442 | -73.77880 | 32 ft | 15 kts | 213° |
| 2026-05-08 11:23 | 40.63370 | -73.77931 | 31 ft | 1 kts | 161° |
| 2026-05-08 11:23 | 40.63330 | -73.77860 | 27 ft | 16 kts | 118° |
| 2026-05-08 11:23 | 40.63263 | -73.77700 | 29 ft | 22 kts | 120° |
| 2026-05-08 11:23 | 40.63183 | -73.77523 | 27 ft | 22 kts | 123° |
| 2026-05-08 11:24 | 40.63101 | -73.77353 | 27 ft | 21 kts | 121° |
| 2026-05-08 11:24 | 40.63032 | -73.77203 | 26 ft | 3 kts | 134° |
| 2026-05-08 11:27 | 40.63029 | -73.77201 | 26 ft | 5 kts | 142° |
| 2026-05-08 11:27 | 40.62953 | -73.77216 | 27 ft | 20 kts | 208° |
| 2026-05-08 11:27 | 40.62887 | -73.77334 | 28 ft | 12 kts | 279° |
| 2026-05-08 11:28 | 40.63009 | -73.77635 | 31 ft | 72 kts | 301° |
| 2026-05-08 11:28 | 40.63385 | -73.78469 | 27 ft | 137 kts | 300° |
| 2026-05-08 11:28 | 40.63959 | -73.79740 | 84 ft | 184 kts | 297° |
| 2026-05-08 11:28 | 40.64607 | -73.81248 | 775 ft | 195 kts | 300° |
| 2026-05-08 11:29 | 40.65329 | -73.82841 | 1628 ft | 209 kts | 302° |
| 2026-05-08 11:29 | 40.65994 | -73.84390 | 2501 ft | 219 kts | 301° |
| 2026-05-08 11:29 | 40.66730 | -73.86151 | 3415 ft | 228 kts | 300° |
| 2026-05-08 11:29 | 40.67537 | -73.88026 | 4364 ft | 237 kts | 300° |
| 2026-05-08 11:30 | 40.68396 | -73.89932 | 5315 ft | 245 kts | 300° |
| 2026-05-08 11:30 | 40.69312 | -73.91868 | 6260 ft | 253 kts | 300° |
| 2026-05-08 11:30 | 40.70284 | -73.93837 | 7173 ft | 259 kts | 300° |
| 2026-05-08 11:30 | 40.71296 | -73.95828 | 8058 ft | 264 kts | 300° |
| 2026-05-08 11:31 | 40.72364 | -73.97860 | 8918 ft | 277 kts | 303° |
| 2026-05-08 11:31 | 40.73867 | -73.99609 | 9831 ft | 300 kts | 322° |
| 2026-05-08 11:31 | 40.75872 | -74.00644 | 10693 ft | 325 kts | 342° |
| 2026-05-08 11:31 | 40.78217 | -74.00619 | 11589 ft | 351 kts | 6° |
| 2026-05-08 11:32 | 40.80511 | -73.99296 | 12535 ft | 374 kts | 28° |
| 2026-05-08 11:32 | 40.82641 | -73.97273 | 13492 ft | 384 kts | 32° |
| 2026-05-08 11:32 | 40.84764 | -73.95062 | 14386 ft | 393 kts | 33° |
| 2026-05-08 11:32 | 40.86944 | -73.92831 | 15252 ft | 398 kts | 31° |
| 2026-05-08 11:33 | 40.89194 | -73.90631 | 16152 ft | 404 kts | 30° |
| 2026-05-08 11:33 | 40.91473 | -73.88398 | 17062 ft | 409 kts | 30° |
| 2026-05-08 11:33 | 40.93713 | -73.86150 | 17968 ft | 414 kts | 30° |
| 2026-05-08 11:33 | 40.96018 | -73.83830 | 18838 ft | 416 kts | 29° |
| 2026-05-08 11:34 | 40.98345 | -73.81509 | 19678 ft | 418 kts | 28° |
| 2026-05-08 11:34 | 41.00682 | -73.79183 | 20510 ft | 419 kts | 28° |
| 2026-05-08 11:34 | 41.03013 | -73.76851 | 21394 ft | 420 kts | 28° |
| 2026-05-08 11:34 | 41.05337 | -73.74516 | 22293 ft | 419 kts | 27° |
| 2026-05-08 11:35 | 41.07620 | -73.72227 | 23187 ft | 417 kts | 27° |
| 2026-05-08 11:35 | 41.09930 | -73.69911 | 24015 ft | 414 kts | 26° |
| 2026-05-08 11:35 | 41.12221 | -73.67610 | 24781 ft | 410 kts | 26° |
| 2026-05-08 11:35 | 41.14481 | -73.65336 | 25577 ft | 404 kts | 25° |
| 2026-05-08 11:36 | 41.16705 | -73.63095 | 26366 ft | 397 kts | 24° |
| 2026-05-08 11:36 | 41.18883 | -73.60901 | 27166 ft | 389 kts | 23° |
| 2026-05-08 11:36 | 41.21012 | -73.58754 | 27969 ft | 379 kts | 22° |
| 2026-05-08 11:36 | 41.23076 | -73.56667 | 28769 ft | 367 kts | 21° |
| 2026-05-08 11:37 | 41.25100 | -73.54630 | 29292 ft | 364 kts | 20° |
| 2026-05-08 11:37 | 41.27160 | -73.52586 | 29285 ft | 377 kts | 21° |
| 2026-05-08 11:37 | 41.29306 | -73.50437 | 29263 ft | 393 kts | 23° |
| 2026-05-08 11:37 | 41.31461 | -73.48215 | 29777 ft | 389 kts | 23° |
| 2026-05-08 11:38 | 41.33539 | -73.46069 | 30451 ft | 376 kts | 21° |
| 2026-05-08 11:38 | 41.35617 | -73.43982 | 30799 ft | 374 kts | 20° |
| 2026-05-08 11:38 | 41.37741 | -73.41882 | 30741 ft | 388 kts | 22° |
| 2026-05-08 11:38 | 41.39933 | -73.39669 | 30763 ft | 400 kts | 24° |
| 2026-05-08 11:39 | 41.42122 | -73.37393 | 31200 ft | 395 kts | 24° |
| 2026-05-08 11:39 | 41.44267 | -73.35176 | 31811 ft | 384 kts | 22° |
| 2026-05-08 11:39 | 41.46385 | -73.33049 | 32123 ft | 382 kts | 21° |
| 2026-05-08 11:39 | 41.48521 | -73.30798 | 32041 ft | 407 kts | 34° |
| 2026-05-08 11:40 | 41.50544 | -73.27956 | 31735 ft | 429 kts | 33° |
| 2026-05-08 11:40 | 41.52655 | -73.25193 | 32236 ft | 419 kts | 32° |
| 2026-05-08 11:40 | 41.54718 | -73.22512 | 32880 ft | 409 kts | 32° |
| 2026-05-08 11:40 | 41.56711 | -73.19849 | 33434 ft | 402 kts | 33° |
| 2026-05-08 11:41 | 41.58687 | -73.17196 | 33630 ft | 405 kts | 32° |
| 2026-05-08 11:41 | 41.60777 | -73.14727 | 33399 ft | 402 kts | 16° |
| 2026-05-08 11:41 | 41.63255 | -73.12961 | 33012 ft | 400 kts | 4° |
| 2026-05-08 11:41 | 41.65845 | -73.11986 | 33422 ft | 371 kts | 351° |
| 2026-05-08 11:42 | 41.68298 | -73.11725 | 34145 ft | 336 kts | 339° |
| 2026-05-08 11:42 | 41.70534 | -73.12015 | 34607 ft | 316 kts | 335° |
| 2026-05-08 11:42 | 41.72716 | -73.12384 | 34784 ft | 318 kts | 335° |
| 2026-05-08 11:43 | 41.77251 | -73.13178 | 34639 ft | 338 kts | 336° |
| 2026-05-08 11:43 | 41.79586 | -73.13554 | 34892 ft | 336 kts | 336° |
| 2026-05-08 11:43 | 41.81847 | -73.13918 | 35295 ft | 328 kts | 336° |
| 2026-05-08 11:43 | 41.84104 | -73.14310 | 35541 ft | 327 kts | 336° |
| 2026-05-08 11:44 | 41.86390 | -73.14724 | 35494 ft | 336 kts | 336° |
| 2026-05-08 11:44 | 41.91144 | -73.15521 | 35652 ft | 345 kts | 338° |
| 2026-05-08 11:44 | 41.93499 | -73.15904 | 36040 ft | 338 kts | 337° |
| 2026-05-08 11:45 | 41.95833 | -73.16307 | 36265 ft | 337 kts | 337° |
| 2026-05-08 11:45 | 42.00597 | -73.17151 | 36138 ft | 353 kts | 338° |
| 2026-05-08 11:45 | 42.03014 | -73.17549 | 36295 ft | 354 kts | 339° |
| 2026-05-08 11:46 | 42.05447 | -73.17948 | 36647 ft | 348 kts | 338° |
| 2026-05-08 11:46 | 42.07835 | -73.18358 | 36900 ft | 346 kts | 338° |
| 2026-05-08 11:46 | 42.10235 | -73.18787 | 36897 ft | 351 kts | 338° |
| 2026-05-08 11:47 | 42.15197 | -73.19638 | 36912 ft | 363 kts | 339° |
| 2026-05-08 11:47 | 42.17695 | -73.20050 | 37237 ft | 358 kts | 339° |
| 2026-05-08 11:47 | 42.20147 | -73.20470 | 37511 ft | 354 kts | 339° |
| 2026-05-08 11:48 | 42.25092 | -73.21346 | 37422 ft | 366 kts | 340° |
| 2026-05-08 11:48 | 42.30209 | -73.22208 | 37727 ft | 367 kts | 340° |
| 2026-05-08 11:48 | 42.32724 | -73.22636 | 38077 ft | 362 kts | 340° |
| 2026-05-08 11:49 | 42.35196 | -73.23074 | 38178 ft | 364 kts | 340° |
| 2026-05-08 11:49 | 42.37738 | -73.23527 | 38075 ft | 373 kts | 341° |
| 2026-05-08 11:49 | 42.40340 | -73.23976 | 38051 ft | 378 kts | 341° |
| 2026-05-08 11:49 | 42.42944 | -73.24412 | 38288 ft | 376 kts | 342° |
| 2026-05-08 11:50 | 42.45519 | -73.24851 | 38605 ft | 371 kts | 341° |
| 2026-05-08 11:50 | 42.48079 | -73.25302 | 38711 ft | 371 kts | 341° |
| 2026-05-08 11:50 | 42.50687 | -73.25629 | 38603 ft | 388 kts | 353° |
| 2026-05-08 11:50 | 42.53473 | -73.25231 | 38229 ft | 416 kts | 5° |
| 2026-05-08 11:51 | 42.56288 | -73.23986 | 38148 ft | 436 kts | 18° |
| 2026-05-08 11:51 | 42.58925 | -73.21886 | 38562 ft | 442 kts | 32° |
| 2026-05-08 11:51 | 42.61181 | -73.19045 | 38970 ft | 443 kts | 47° |
| 2026-05-08 11:51 | 42.62954 | -73.15568 | 38975 ft | 455 kts | 58° |
| 2026-05-08 11:52 | 42.64528 | -73.11807 | 38868 ft | 460 kts | 56° |
| 2026-05-08 11:52 | 42.66109 | -73.08024 | 39039 ft | 459 kts | 57° |
| 2026-05-08 11:52 | 42.67671 | -73.04285 | 39057 ft | 463 kts | 56° |
| 2026-05-08 11:53 | 42.70896 | -72.96588 | 39056 ft | 473 kts | 57° |
| 2026-05-08 11:53 | 42.74188 | -72.88685 | 39023 ft | 486 kts | 57° |
| 2026-05-08 11:54 | 42.77573 | -72.80550 | 38976 ft | 500 kts | 57° |
| 2026-05-08 11:54 | 42.81040 | -72.72187 | 38959 ft | 514 kts | 58° |
| 2026-05-08 11:55 | 42.84577 | -72.63636 | 38952 ft | 527 kts | 58° |
| 2026-05-08 11:55 | 42.88230 | -72.54771 | 38946 ft | 538 kts | 58° |
| 2026-05-08 11:56 | 42.91908 | -72.45824 | 38937 ft | 550 kts | 58° |
| 2026-05-08 11:56 | 42.95674 | -72.36630 | 38932 ft | 560 kts | 58° |
| 2026-05-08 11:57 | 42.99502 | -72.27256 | 38930 ft | 570 kts | 59° |
| 2026-05-08 11:57 | 43.03396 | -72.17692 | 38931 ft | 578 kts | 59° |
| 2026-05-08 11:58 | 43.07325 | -72.08004 | 38924 ft | 585 kts | 59° |
| 2026-05-08 11:58 | 43.11246 | -71.98307 | 38919 ft | 585 kts | 59° |
| 2026-05-08 11:59 | 43.16480 | -71.85310 | 38910 ft | 584 kts | 59° |
| 2026-05-08 11:59 | 43.21032 | -71.73960 | 38898 ft | 584 kts | 59° |
| 2026-05-08 12:00 | 43.24936 | -71.64189 | 38912 ft | 584 kts | 59° |
| 2026-05-08 12:00 | 43.28831 | -71.54407 | 38922 ft | 583 kts | 60° |
| 2026-05-08 12:01 | 43.32711 | -71.44630 | 38912 ft | 582 kts | 60° |
| 2026-05-08 12:01 | 43.35923 | -71.36512 | 38903 ft | 582 kts | 60° |
| 2026-05-08 12:02 | 43.40404 | -71.25143 | 38888 ft | 582 kts | 60° |
| 2026-05-08 12:02 | 43.43631 | -71.16931 | 38882 ft | 582 kts | 60° |
| 2026-05-08 12:03 | 43.47454 | -71.07170 | 38888 ft | 582 kts | 60° |
| 2026-05-08 12:03 | 43.51285 | -70.97353 | 38883 ft | 582 kts | 60° |
| 2026-05-08 12:04 | 43.55108 | -70.87525 | 38891 ft | 581 kts | 60° |
| 2026-05-08 12:04 | 43.58918 | -70.77695 | 38894 ft | 581 kts | 60° |
| 2026-05-08 12:05 | 43.62722 | -70.67846 | 38889 ft | 581 kts | 61° |
| 2026-05-08 12:05 | 43.66494 | -70.58047 | 38883 ft | 581 kts | 61° |
| 2026-05-08 12:06 | 43.70280 | -70.48176 | 38886 ft | 581 kts | 61° |
| 2026-05-08 12:06 | 43.74064 | -70.38276 | 38887 ft | 581 kts | 61° |
| 2026-05-08 12:07 | 43.77816 | -70.28432 | 38885 ft | 581 kts | 61° |
| 2026-05-08 12:07 | 43.81568 | -70.18534 | 38884 ft | 581 kts | 61° |
| 2026-05-08 12:08 | 43.85329 | -70.08598 | 38885 ft | 581 kts | 61° |
| 2026-05-08 12:08 | 43.89069 | -69.98670 | 38888 ft | 581 kts | 62° |
| 2026-05-08 12:09 | 43.92774 | -69.88806 | 38887 ft | 580 kts | 62° |
| 2026-05-08 12:09 | 43.96496 | -69.78859 | 38879 ft | 580 kts | 62° |
| 2026-05-08 12:10 | 44.00211 | -69.68896 | 38879 ft | 580 kts | 62° |
| 2026-05-08 12:10 | 44.03914 | -69.58927 | 38872 ft | 580 kts | 62° |
| 2026-05-08 12:11 | 44.07609 | -69.48948 | 38873 ft | 580 kts | 62° |
| 2026-05-08 12:11 | 44.11293 | -69.38959 | 38856 ft | 580 kts | 62° |
| 2026-05-08 12:12 | 44.14938 | -69.29043 | 38862 ft | 579 kts | 62° |
| 2026-05-08 12:12 | 44.18603 | -69.19034 | 38864 ft | 579 kts | 63° |
| 2026-05-08 12:13 | 44.22258 | -69.09018 | 38860 ft | 579 kts | 63° |
| 2026-05-08 12:13 | 44.25903 | -68.98992 | 38857 ft | 579 kts | 63° |
| 2026-05-08 12:14 | 44.29533 | -68.88972 | 38851 ft | 579 kts | 63° |
| 2026-05-08 12:14 | 44.33157 | -68.78930 | 38841 ft | 579 kts | 63° |
| 2026-05-08 12:15 | 44.36750 | -68.68939 | 38836 ft | 578 kts | 63° |
| 2026-05-08 12:15 | 44.40357 | -68.58871 | 38830 ft | 578 kts | 63° |
| 2026-05-08 12:16 | 44.43958 | -68.48783 | 38826 ft | 578 kts | 64° |
| 2026-05-08 12:16 | 44.47541 | -68.38708 | 38827 ft | 578 kts | 64° |
| 2026-05-08 12:17 | 44.51122 | -68.28602 | 38829 ft | 579 kts | 64° |
| 2026-05-08 12:17 | 44.54694 | -68.18483 | 38826 ft | 579 kts | 64° |
| 2026-05-08 12:18 | 44.58233 | -68.08422 | 38824 ft | 579 kts | 64° |
| 2026-05-08 12:18 | 44.61791 | -67.98267 | 38817 ft | 580 kts | 64° |
| 2026-05-08 12:19 | 44.65346 | -67.88082 | 38807 ft | 580 kts | 65° |
| 2026-05-08 12:19 | 44.68894 | -67.77882 | 38809 ft | 581 kts | 65° |
| 2026-05-08 12:20 | 44.72433 | -67.67666 | 38806 ft | 581 kts | 65° |
| 2026-05-08 12:20 | 44.75971 | -67.57414 | 38802 ft | 582 kts | 65° |
| 2026-05-08 12:21 | 44.79498 | -67.47155 | 38802 ft | 582 kts | 65° |
| 2026-05-08 12:21 | 44.83016 | -67.36885 | 38804 ft | 583 kts | 65° |
| 2026-05-08 12:22 | 44.86510 | -67.26643 | 38802 ft | 583 kts | 65° |
| 2026-05-08 12:22 | 44.90112 | -67.16390 | 38809 ft | 583 kts | 57° |
| 2026-05-08 12:23 | 44.95030 | -67.07268 | 38808 ft | 584 kts | 51° |
| 2026-05-08 12:23 | 45.00016 | -66.98578 | 38799 ft | 584 kts | 51° |
| 2026-05-08 12:24 | 45.05105 | -66.89604 | 38796 ft | 584 kts | 51° |
| 2026-05-08 12:24 | 45.10193 | -66.80650 | 38783 ft | 584 kts | 51° |
| 2026-05-08 12:25 | 45.15269 | -66.71663 | 38779 ft | 584 kts | 52° |
| 2026-05-08 12:25 | 45.20345 | -66.62660 | 38768 ft | 584 kts | 52° |
| 2026-05-08 12:26 | 45.25383 | -66.53691 | 38761 ft | 584 kts | 52° |
| 2026-05-08 12:26 | 45.30443 | -66.44655 | 38758 ft | 584 kts | 52° |
| 2026-05-08 12:27 | 45.35498 | -66.35600 | 38750 ft | 584 kts | 52° |
| 2026-05-08 12:27 | 45.40549 | -66.26521 | 38747 ft | 584 kts | 52° |
| 2026-05-08 12:28 | 45.45590 | -66.17435 | 38744 ft | 584 kts | 52° |
| 2026-05-08 12:28 | 45.50594 | -66.08382 | 38742 ft | 585 kts | 52° |
| 2026-05-08 12:29 | 45.55619 | -65.99265 | 38741 ft | 585 kts | 53° |
| 2026-05-08 12:29 | 45.60651 | -65.90104 | 38734 ft | 585 kts | 53° |
| 2026-05-08 12:30 | 45.65662 | -65.80952 | 38722 ft | 585 kts | 53° |
| 2026-05-08 12:30 | 45.70670 | -65.71775 | 38718 ft | 585 kts | 53° |
| 2026-05-08 12:31 | 45.75638 | -65.62644 | 38719 ft | 585 kts | 53° |
| 2026-05-08 12:31 | 45.80431 | -65.53805 | 38718 ft | 585 kts | 53° |
| 2026-05-08 12:32 | 45.85401 | -65.44609 | 38714 ft | 585 kts | 53° |
| 2026-05-08 12:32 | 45.90394 | -65.35342 | 38710 ft | 585 kts | 54° |
| 2026-05-08 12:33 | 45.95364 | -65.26085 | 38713 ft | 585 kts | 54° |
| 2026-05-08 12:33 | 46.00335 | -65.16797 | 38709 ft | 585 kts | 54° |
| 2026-05-08 12:34 | 46.05301 | -65.07488 | 38707 ft | 586 kts | 54° |
| 2026-05-08 12:34 | 46.10230 | -64.98216 | 38703 ft | 586 kts | 54° |
| 2026-05-08 12:35 | 46.15180 | -64.88875 | 38711 ft | 586 kts | 54° |
| 2026-05-08 12:35 | 46.20122 | -64.79517 | 38711 ft | 586 kts | 55° |
| 2026-05-08 12:36 | 46.25063 | -64.70129 | 38712 ft | 587 kts | 55° |
| 2026-05-08 12:36 | 46.30004 | -64.60712 | 38705 ft | 587 kts | 55° |
| 2026-05-08 12:37 | 46.34904 | -64.51340 | 38697 ft | 588 kts | 55° |
| 2026-05-08 12:37 | 46.39858 | -64.41832 | 38700 ft | 588 kts | 55° |
| 2026-05-08 12:38 | 46.44748 | -64.32417 | 38697 ft | 588 kts | 56° |
| 2026-05-08 12:38 | 46.49670 | -64.22907 | 38700 ft | 589 kts | 56° |
| 2026-05-08 12:39 | 46.54589 | -64.13370 | 38698 ft | 589 kts | 56° |
| 2026-05-08 12:39 | 46.59494 | -64.03828 | 38702 ft | 589 kts | 56° |
| 2026-05-08 12:40 | 46.64392 | -63.94265 | 38699 ft | 589 kts | 56° |
| 2026-05-08 12:40 | 46.69164 | -63.84919 | 38696 ft | 590 kts | 56° |
| 2026-05-08 12:41 | 46.74056 | -63.75304 | 38703 ft | 590 kts | 56° |
| 2026-05-08 12:41 | 46.78937 | -63.65676 | 38705 ft | 590 kts | 56° |
| 2026-05-08 12:42 | 46.83816 | -63.56020 | 38707 ft | 591 kts | 57° |
| 2026-05-08 12:42 | 46.88689 | -63.46342 | 38709 ft | 591 kts | 57° |
| 2026-05-08 12:43 | 46.93554 | -63.36647 | 38708 ft | 591 kts | 57° |
| 2026-05-08 12:43 | 46.98412 | -63.26930 | 38717 ft | 591 kts | 57° |
| 2026-05-08 12:44 | 47.03230 | -63.17261 | 38715 ft | 592 kts | 57° |
| 2026-05-08 12:44 | 47.08089 | -63.07475 | 38719 ft | 592 kts | 57° |
| 2026-05-08 12:45 | 47.12943 | -62.97664 | 38722 ft | 592 kts | 57° |
| 2026-05-08 12:45 | 47.17750 | -62.87913 | 38719 ft | 593 kts | 57° |
| 2026-05-08 12:46 | 47.22584 | -62.78073 | 38718 ft | 594 kts | 58° |
| 2026-05-08 12:46 | 47.27415 | -62.68204 | 38725 ft | 594 kts | 58° |
| 2026-05-08 12:47 | 47.32234 | -62.58325 | 38726 ft | 594 kts | 58° |
| 2026-05-08 12:47 | 47.36909 | -62.48707 | 38725 ft | 594 kts | 58° |